Time;durP1;ratioP1;P1;durP2;ratioP2;P2;SDS_P1;SDS_P2;PMS_P1;PMS_P2;Temp;Humidity;BMP_temperature;BMP_pressure;BME280_temperature;BME280_humidity;BME280_pressure;Samples;Min_cycle;Max_cycle;Signal;HPM_P1;HPM_P2
2023/11/23 00:00:27;;;;;;;8.13;8.03;;;6.60;99.90;;;;;;5082756;28;20553;-70
2023/11/23 00:02:55;;;;;;;6.70;6.60;;;6.50;99.90;;;;;;5080647;28;20461;-70
2023/11/23 00:05:22;;;;;;;5.70;5.60;;;6.40;99.90;;;;;;5081910;28;20470;-70
2023/11/23 00:07:49;;;;;;;6.37;6.27;;;6.40;99.90;;;;;;5077539;28;20462;-70
2023/11/23 00:10:16;;;;;;;6.37;6.27;;;6.50;99.90;;;;;;5090649;28;20949;-71
2023/11/23 00:12:43;;;;;;;6.10;6.00;;;6.50;99.90;;;;;;5082558;28;20821;-69
2023/11/23 00:15:11;;;;;;;6.07;5.97;;;6.50;99.90;;;;;;5092377;28;20461;-70
2023/11/23 00:17:39;;;;;;;5.63;5.53;;;6.60;99.90;;;;;;5087511;28;20486;-71
2023/11/23 00:20:09;;;;;;;5.70;5.60;;;6.60;99.90;;;;;;5070575;28;20495;-71
2023/11/23 00:22:37;;;;;;;6.00;5.90;;;6.60;99.90;;;;;;5087561;28;20512;-70
2023/11/23 00:25:05;;;;;;;5.87;5.77;;;6.60;99.90;;;;;;5078083;28;20869;-70
2023/11/23 00:27:34;;;;;;;5.70;5.60;;;6.70;99.90;;;;;;5079625;28;20470;-70
2023/11/23 00:30:01;;;;;;;6.00;5.90;;;6.80;99.90;;;;;;5090871;28;20485;-70
2023/11/23 00:32:28;;;;;;;5.63;5.53;;;6.80;99.90;;;;;;5086205;28;20553;-70
2023/11/23 00:34:55;;;;;;;5.70;5.60;;;6.80;99.90;;;;;;5078383;28;21011;-70
2023/11/23 00:37:23;;;;;;;5.80;5.70;;;6.80;99.90;;;;;;5090285;28;20829;-70
2023/11/23 00:39:50;;;;;;;5.50;5.40;;;6.80;99.90;;;;;;5079496;28;21067;-70
2023/11/23 00:42:17;;;;;;;5.60;5.50;;;6.90;99.90;;;;;;5085836;28;20696;-70
2023/11/23 00:44:44;;;;;;;5.17;5.07;;;6.90;99.90;;;;;;5083000;28;20945;-70
2023/11/23 00:47:12;;;;;;;5.77;5.67;;;6.80;99.90;;;;;;5092804;28;20477;-69
2023/11/23 00:49:40;;;;;;;5.40;5.30;;;6.90;99.90;;;;;;5087951;28;20609;-69
2023/11/23 00:52:07;;;;;;;5.33;5.23;;;6.80;99.90;;;;;;5078179;28;20976;-69
2023/11/23 00:54:38;;;;;;;5.10;5.00;;;6.80;99.90;;;;;;5082198;28;20512;-69
2023/11/23 00:57:06;;;;;;;4.93;4.93;;;6.80;99.90;;;;;;5080181;28;20467;-69
2023/11/23 00:59:33;;;;;;;4.50;4.50;;;6.80;99.90;;;;;;5081489;28;20505;-69
2023/11/23 01:02:01;;;;;;;4.83;4.83;;;6.80;99.90;;;;;;5088759;28;20841;-69
2023/11/23 01:04:29;;;;;;;4.80;4.80;;;6.80;99.90;;;;;;5076057;28;20824;-69
2023/11/23 01:06:55;;;;;;;4.70;4.70;;;6.80;99.90;;;;;;5078983;28;20942;-69
2023/11/23 01:09:23;;;;;;;4.70;4.70;;;6.90;99.90;;;;;;5089922;28;20454;-69
2023/11/23 01:11:52;;;;;;;4.30;4.30;;;6.90;99.90;;;;;;5074606;28;20861;-70
2023/11/23 01:14:18;;;;;;;5.13;5.07;;;6.90;99.90;;;;;;5076482;28;20554;-69
2023/11/23 01:16:45;;;;;;;4.30;4.30;;;6.90;99.90;;;;;;5077508;28;20472;-69
2023/11/23 01:19:13;;;;;;;4.70;4.70;;;6.90;99.90;;;;;;5079417;28;20557;-69
2023/11/23 01:21:41;;;;;;;4.00;4.00;;;6.90;99.90;;;;;;5072695;28;20470;-69
2023/11/23 01:24:09;;;;;;;4.13;4.13;;;6.80;99.90;;;;;;5090257;28;20482;-69
2023/11/23 01:26:37;;;;;;;4.70;4.70;;;6.80;99.90;;;;;;5084581;28;20459;-70
2023/11/23 01:29:05;;;;;;;4.90;4.90;;;6.80;99.90;;;;;;5071250;28;20470;-70
2023/11/23 01:31:32;;;;;;;5.03;4.97;;;6.80;99.90;;;;;;5083448;28;20464;-69
2023/11/23 01:33:59;;;;;;;4.57;4.57;;;6.80;99.90;;;;;;5086830;28;20455;-69
2023/11/23 01:36:27;;;;;;;5.17;5.07;;;6.80;99.90;;;;;;5079916;28;20484;-69
2023/11/23 01:38:54;;;;;;;4.40;4.40;;;6.80;99.90;;;;;;5085594;28;20488;-69
2023/11/23 01:41:21;;;;;;;4.80;4.80;;;6.80;99.90;;;;;;5080415;28;20522;-69
2023/11/23 01:43:48;;;;;;;4.80;4.80;;;6.80;99.90;;;;;;5085864;28;20616;-69
2023/11/23 01:46:16;;;;;;;5.10;5.00;;;6.80;99.90;;;;;;5081027;28;20458;-69
2023/11/23 01:48:45;;;;;;;4.97;4.97;;;6.90;99.90;;;;;;5088910;28;20477;-69
2023/11/23 01:51:13;;;;;;;5.60;5.50;;;6.90;99.90;;;;;;5070962;28;20958;-69
2023/11/23 01:53:40;;;;;;;4.90;4.90;;;6.90;99.90;;;;;;5092100;28;20545;-69
2023/11/23 01:56:10;;;;;;;5.47;5.37;;;6.90;99.90;;;;;;5080401;28;20458;-69
2023/11/23 01:58:38;;;;;;;5.30;5.20;;;7.00;99.90;;;;;;5077416;28;20498;-69
2023/11/23 02:01:05;;;;;;;5.60;5.50;;;7.00;99.90;;;;;;5084242;28;20458;-69
2023/11/23 02:03:34;;;;;;;4.93;4.93;;;7.00;99.90;;;;;;5081006;28;20529;-69
2023/11/23 02:06:01;;;;;;;4.97;4.97;;;6.90;99.90;;;;;;5082758;28;21131;-69
2023/11/23 02:08:27;;;;;;;4.93;4.93;;;6.90;99.90;;;;;;5089145;28;20458;-69
2023/11/23 02:10:54;;;;;;;5.53;5.43;;;6.90;99.90;;;;;;5081271;28;20458;-69
2023/11/23 02:13:23;;;;;;;5.93;5.83;;;6.90;99.90;;;;;;5088964;28;20446;-69
2023/11/23 02:15:51;;;;;;;4.97;4.97;;;7.00;99.90;;;;;;5078525;28;20463;-69
2023/11/23 02:18:17;;;;;;;5.97;5.87;;;7.00;99.90;;;;;;5076967;28;20513;-69
2023/11/23 02:20:47;;;;;;;5.80;5.70;;;7.00;99.90;;;;;;5080547;28;20497;-69
2023/11/23 02:23:13;;;;;;;6.43;6.33;;;7.00;99.90;;;;;;5087708;28;20581;-69
2023/11/23 02:25:42;;;;;;;6.43;6.33;;;7.10;99.90;;;;;;5079651;28;20520;-69
2023/11/23 02:28:09;;;;;;;6.40;6.30;;;7.10;99.90;;;;;;5080146;28;20459;-69
2023/11/23 02:30:36;;;;;;;6.30;6.20;;;7.10;99.90;;;;;;5088391;28;20462;-69
2023/11/23 02:33:06;;;;;;;6.40;6.30;;;7.10;99.90;;;;;;5086332;28;20457;-69
2023/11/23 02:35:33;;;;;;;6.00;5.90;;;7.20;99.90;;;;;;5086280;28;20970;-69
2023/11/23 02:38:00;;;;;;;5.90;5.80;;;7.20;99.90;;;;;;5079146;28;20820;-69
2023/11/23 02:40:27;;;;;;;5.70;5.60;;;7.10;99.90;;;;;;5082913;28;20524;-69
2023/11/23 02:42:56;;;;;;;6.03;5.93;;;7.20;99.90;;;;;;5080903;28;20477;-70
2023/11/23 02:45:23;;;;;;;5.93;5.83;;;7.20;99.90;;;;;;5078808;28;20458;-69
2023/11/23 02:47:50;;;;;;;5.87;5.77;;;7.20;99.90;;;;;;5082122;28;22534;-70
2023/11/23 02:50:17;;;;;;;5.53;5.43;;;7.20;99.90;;;;;;5078709;28;20478;-69
2023/11/23 02:52:43;;;;;;;5.50;5.40;;;7.30;99.90;;;;;;5085598;28;20461;-69
2023/11/23 02:55:11;;;;;;;5.00;4.90;;;7.30;99.90;;;;;;5071279;28;20640;-70
2023/11/23 02:57:38;;;;;;;5.17;5.07;;;7.30;99.90;;;;;;5081757;28;20535;-69
2023/11/23 03:00:09;;;;;;;5.80;5.70;;;7.30;99.90;;;;;;5088563;28;20583;-69
2023/11/23 03:02:37;;;;;;;5.57;5.47;;;7.40;99.90;;;;;;5084707;28;20476;-69
2023/11/23 03:05:04;;;;;;;5.30;5.20;;;7.40;99.90;;;;;;5087915;28;20524;-70
2023/11/23 03:07:31;;;;;;;5.93;5.83;;;7.40;99.90;;;;;;5081445;28;20488;-69
2023/11/23 03:09:58;;;;;;;5.73;5.63;;;7.40;99.90;;;;;;5078901;28;20556;-70
2023/11/23 03:12:28;;;;;;;5.50;5.40;;;7.40;99.90;;;;;;5072864;28;20463;-69
2023/11/23 03:14:55;;;;;;;5.50;5.40;;;7.40;99.90;;;;;;5077606;28;21013;-70
2023/11/23 03:17:23;;;;;;;5.43;5.33;;;7.40;99.90;;;;;;5086258;28;20990;-69
2023/11/23 03:19:50;;;;;;;5.10;5.03;;;7.40;99.90;;;;;;5081612;28;20841;-70
2023/11/23 03:22:17;;;;;;;5.17;5.07;;;7.40;99.90;;;;;;5080698;28;20458;-70
2023/11/23 03:24:43;;;;;;;5.50;5.40;;;7.50;99.90;;;;;;5082451;28;20487;-69
2023/11/23 03:27:10;;;;;;;5.90;5.80;;;7.50;99.90;;;;;;5075816;28;20490;-70
2023/11/23 03:29:37;;;;;;;5.60;5.50;;;7.50;99.90;;;;;;5075747;28;20471;-69
2023/11/23 03:32:04;;;;;;;5.53;5.43;;;7.60;99.90;;;;;;5087097;28;20457;-70
2023/11/23 03:34:32;;;;;;;5.47;5.37;;;7.60;99.90;;;;;;5075283;28;20463;-70
2023/11/23 03:37:00;;;;;;;5.60;5.50;;;7.70;99.90;;;;;;5090263;28;20538;-70
2023/11/23 03:39:26;;;;;;;4.77;4.77;;;7.70;99.90;;;;;;5090628;28;20734;-70
2023/11/23 03:41:53;;;;;;;5.23;5.13;;;7.70;99.90;;;;;;5088630;28;20454;-69
2023/11/23 03:44:20;;;;;;;5.20;5.10;;;7.60;99.90;;;;;;5084494;28;21111;-70
2023/11/23 03:46:47;;;;;;;4.90;4.90;;;7.70;99.90;;;;;;5078116;28;20533;-70
2023/11/23 03:49:15;;;;;;;4.70;4.70;;;7.60;99.90;;;;;;5086561;28;20549;-69
2023/11/23 03:51:43;;;;;;;4.53;4.53;;;7.70;99.90;;;;;;5091331;28;20457;-69
2023/11/23 03:54:10;;;;;;;4.80;4.80;;;7.70;99.90;;;;;;5077913;28;20447;-70
2023/11/23 03:56:38;;;;;;;4.53;4.53;;;7.80;99.90;;;;;;5085131;28;20966;-70
2023/11/23 03:59:06;;;;;;;4.80;4.80;;;7.90;99.90;;;;;;5077986;28;20470;-70
2023/11/23 04:01:33;;;;;;;4.50;4.50;;;7.90;99.90;;;;;;5079477;28;20462;-70
2023/11/23 04:04:00;;;;;;;4.23;4.23;;;7.90;99.90;;;;;;5085883;28;20964;-70
2023/11/23 04:06:28;;;;;;;4.20;4.20;;;7.90;99.90;;;;;;5078266;28;20458;-70
2023/11/23 04:08:57;;;;;;;4.50;4.50;;;7.90;99.90;;;;;;5082838;28;20482;-70
2023/11/23 04:11:23;;;;;;;4.20;4.20;;;7.90;99.90;;;;;;5090123;28;20454;-70
2023/11/23 04:13:50;;;;;;;3.90;3.90;;;8.00;99.90;;;;;;5071906;28;20486;-70
2023/11/23 04:16:17;;;;;;;3.67;3.67;;;7.90;99.90;;;;;;5082406;28;20458;-70
2023/11/23 04:18:46;;;;;;;4.03;4.03;;;8.00;99.90;;;;;;5076069;28;20497;-70
2023/11/23 04:21:13;;;;;;;5.00;5.00;;;8.00;99.90;;;;;;5084847;28;20604;-70
2023/11/23 04:23:40;;;;;;;4.53;4.53;;;8.10;99.90;;;;;;5079772;28;20469;-70
2023/11/23 04:26:08;;;;;;;5.40;5.30;;;8.10;99.90;;;;;;5073439;28;20463;-70
2023/11/23 04:28:36;;;;;;;3.90;3.90;;;8.10;99.90;;;;;;5090488;28;20462;-70
2023/11/23 04:31:03;;;;;;;5.27;5.17;;;8.10;99.90;;;;;;5088136;28;20822;-70
2023/11/23 04:33:31;;;;;;;5.00;5.00;;;8.20;99.90;;;;;;5085339;28;20482;-70
2023/11/23 04:35:58;;;;;;;4.60;4.60;;;8.20;99.90;;;;;;5090616;28;20471;-70
2023/11/23 04:38:25;;;;;;;4.60;4.60;;;8.20;99.90;;;;;;5078732;28;20487;-70
2023/11/23 04:40:53;;;;;;;4.97;4.97;;;8.20;99.90;;;;;;5089089;28;20482;-70
2023/11/23 04:43:21;;;;;;;4.70;4.70;;;8.20;99.90;;;;;;5085388;28;20513;-70
2023/11/23 04:45:48;;;;;;;5.17;5.10;;;8.20;99.90;;;;;;5080358;28;21027;-70
2023/11/23 04:48:15;;;;;;;4.80;4.80;;;8.30;99.90;;;;;;5085290;28;20469;-70
2023/11/23 04:50:42;;;;;;;4.90;4.90;;;8.30;99.90;;;;;;5090072;28;20450;-70
2023/11/23 04:53:10;;;;;;;4.13;4.13;;;8.30;99.90;;;;;;5078087;28;20474;-70
2023/11/23 04:55:38;;;;;;;4.50;4.50;;;8.30;99.90;;;;;;5082388;28;20857;-71
2023/11/23 04:58:07;;;;;;;4.37;4.37;;;8.40;99.90;;;;;;5080083;28;20459;-70
2023/11/23 05:00:35;;;;;;;4.33;4.33;;;8.40;99.90;;;;;;5093140;28;20656;-70
2023/11/23 05:03:02;;;;;;;4.73;4.73;;;8.40;99.90;;;;;;5072445;28;20508;-70
2023/11/23 05:05:27;;;;;;;4.37;4.37;;;8.40;99.90;;;;;;5082712;28;20499;-70
2023/11/23 05:07:55;;;;;;;3.50;3.50;;;8.40;99.90;;;;;;5077007;28;20552;-70
2023/11/23 05:10:22;;;;;;;4.00;4.00;;;8.20;99.90;;;;;;5077128;28;20560;-70
2023/11/23 05:12:53;;;;;;;4.50;4.50;;;8.30;99.90;;;;;;5085474;28;20865;-70
2023/11/23 05:15:19;;;;;;;4.50;4.50;;;8.40;99.90;;;;;;5071364;28;20468;-70
2023/11/23 05:17:47;;;;;;;4.00;4.00;;;8.40;99.90;;;;;;5079956;28;20484;-71
2023/11/23 05:20:14;;;;;;;3.90;3.90;;;8.40;99.90;;;;;;5082271;28;20514;-70
2023/11/23 05:22:41;;;;;;;3.80;3.80;;;8.40;99.90;;;;;;5078163;28;20660;-70
2023/11/23 05:25:09;;;;;;;4.17;4.17;;;8.40;99.90;;;;;;5073594;28;20627;-70
2023/11/23 05:27:36;;;;;;;4.30;4.30;;;8.40;99.90;;;;;;5063657;28;20551;-70
2023/11/23 05:30:03;;;;;;;4.20;4.20;;;8.50;99.90;;;;;;5060762;28;20460;-70
2023/11/23 05:32:31;;;;;;;4.20;4.20;;;8.50;99.90;;;;;;5054870;28;20464;-71
2023/11/23 05:34:59;;;;;;;4.40;4.40;;;8.50;99.90;;;;;;5065500;28;20463;-70
2023/11/23 05:37:25;;;;;;;4.40;4.40;;;8.60;99.90;;;;;;5055146;28;20456;-71
2023/11/23 05:39:52;;;;;;;4.50;4.50;;;8.60;99.90;;;;;;5066936;28;20981;-70
2023/11/23 05:42:19;;;;;;;4.40;4.40;;;8.60;99.90;;;;;;5059957;28;20467;-70
2023/11/23 05:44:46;;;;;;;4.13;4.13;;;8.60;99.90;;;;;;5067233;28;20824;-70
2023/11/23 05:47:13;;;;;;;4.33;4.33;;;8.60;99.90;;;;;;5055794;28;20460;-70
2023/11/23 05:49:40;;;;;;;3.93;3.93;;;8.60;99.90;;;;;;5051814;28;20827;-70
2023/11/23 05:52:08;;;;;;;4.47;4.47;;;8.70;99.90;;;;;;5061560;28;20496;-70
2023/11/23 05:54:37;;;;;;;4.40;4.40;;;8.70;99.90;;;;;;5065067;28;20794;-70
2023/11/23 05:57:05;;;;;;;4.60;4.60;;;8.60;99.90;;;;;;5064080;28;20464;-70
2023/11/23 05:59:46;;;;;;;4.40;4.40;;;8.70;99.90;;;;;;5055278;28;20462;-70
2023/11/23 06:02:13;;;;;;;4.83;4.83;;;8.80;99.90;;;;;;5063066;28;20877;-70
2023/11/23 06:04:44;;;;;;;4.57;4.57;;;8.80;99.90;;;;;;5068702;28;20897;-70
2023/11/23 06:07:13;;;;;;;4.50;4.50;;;8.80;99.90;;;;;;5060797;28;20452;-71
2023/11/23 06:09:40;;;;;;;4.00;4.00;;;8.80;99.90;;;;;;5059793;28;20503;-70
2023/11/23 06:12:08;;;;;;;3.93;3.93;;;8.80;99.90;;;;;;5047127;28;20464;-70
2023/11/23 06:14:36;;;;;;;4.17;4.17;;;8.90;99.90;;;;;;5057307;28;20455;-70
2023/11/23 06:17:03;;;;;;;4.00;4.00;;;8.90;99.90;;;;;;5052539;28;20485;-71
2023/11/23 06:19:31;;;;;;;3.80;3.80;;;8.90;99.90;;;;;;5057523;28;20968;-70
2023/11/23 06:21:57;;;;;;;3.50;3.50;;;8.90;99.90;;;;;;5055623;28;20569;-70
2023/11/23 06:24:27;;;;;;;4.00;4.00;;;8.90;99.90;;;;;;5063308;28;20493;-70
2023/11/23 06:26:53;;;;;;;4.30;4.30;;;8.90;99.90;;;;;;5082829;28;20915;-70
2023/11/23 06:29:20;;;;;;;4.10;4.10;;;9.00;99.90;;;;;;5086699;28;20467;-70
2023/11/23 06:31:50;;;;;;;4.00;4.00;;;8.90;99.90;;;;;;5074713;28;20465;-70
2023/11/23 06:34:16;;;;;;;4.10;4.10;;;8.90;99.90;;;;;;5086857;28;20511;-70
2023/11/23 06:36:44;;;;;;;4.00;4.00;;;8.90;99.90;;;;;;5077507;28;20462;-71
2023/11/23 06:39:11;;;;;;;3.50;3.50;;;8.90;99.90;;;;;;5075284;28;20460;-70
2023/11/23 06:41:40;;;;;;;4.43;4.43;;;8.80;99.90;;;;;;5082049;28;20479;-70
2023/11/23 06:44:07;;;;;;;4.90;4.90;;;8.90;99.90;;;;;;5084005;28;20968;-70
2023/11/23 06:46:33;;;;;;;4.07;4.07;;;9.00;99.90;;;;;;5076540;28;20470;-70
2023/11/23 06:49:00;;;;;;;4.13;4.13;;;8.90;99.90;;;;;;5083973;28;20818;-70
2023/11/23 06:51:27;;;;;;;4.20;4.20;;;8.90;99.90;;;;;;5075996;28;20460;-70
2023/11/23 06:53:54;;;;;;;3.77;3.77;;;8.90;99.90;;;;;;5072614;28;21017;-70
2023/11/23 06:56:21;;;;;;;4.03;4.03;;;9.00;99.90;;;;;;5078611;28;21048;-70
2023/11/23 06:58:51;;;;;;;4.60;4.60;;;9.00;99.90;;;;;;5077519;28;20466;-71
2023/11/23 07:01:18;;;;;;;4.03;4.03;;;9.00;99.90;;;;;;5086015;28;20490;-70
2023/11/23 07:03:45;;;;;;;4.20;4.20;;;8.90;99.90;;;;;;5075633;28;20471;-73
2023/11/23 07:06:13;;;;;;;4.73;4.73;;;9.00;99.90;;;;;;5078165;28;20461;-74
2023/11/23 07:08:41;;;;;;;4.50;4.50;;;9.00;99.90;;;;;;5072897;28;20470;-72
2023/11/23 07:11:08;;;;;;;4.47;4.47;;;9.10;99.90;;;;;;5084333;28;20462;-70
2023/11/23 07:13:35;;;;;;;4.60;4.60;;;9.00;99.90;;;;;;5084630;28;20450;-70
2023/11/23 07:16:04;;;;;;;4.20;4.20;;;9.10;99.90;;;;;;5089166;28;20473;-73
2023/11/23 07:18:32;;;;;;;4.70;4.70;;;9.10;99.90;;;;;;5083475;28;20487;-73
2023/11/23 07:20:58;;;;;;;4.67;4.67;;;9.10;99.90;;;;;;5088218;28;20543;-71
2023/11/23 07:23:26;;;;;;;4.47;4.47;;;9.10;99.90;;;;;;5089182;28;20467;-73
2023/11/23 07:25:53;;;;;;;4.67;4.67;;;9.10;99.90;;;;;;5063222;28;20483;-74
2023/11/23 07:28:21;;;;;;;4.77;4.77;;;9.20;99.90;;;;;;5067132;28;20957;-74
2023/11/23 07:30:49;;;;;;;4.33;4.33;;;9.20;99.90;;;;;;5069734;28;20466;-71
2023/11/23 07:33:17;;;;;;;4.67;4.67;;;9.10;99.90;;;;;;5065343;28;20467;-71
2023/11/23 07:35:46;;;;;;;4.47;4.47;;;9.10;99.90;;;;;;5064864;28;20455;-71
2023/11/23 07:38:14;;;;;;;5.10;5.00;;;9.10;99.90;;;;;;5059534;28;20521;-74
2023/11/23 07:40:41;;;;;;;5.40;5.30;;;9.20;99.90;;;;;;5058859;28;20869;-73
2023/11/23 07:43:08;;;;;;;5.20;5.10;;;9.20;99.90;;;;;;5054456;28;20485;-71
2023/11/23 07:45:39;;;;;;;4.80;4.80;;;9.30;99.90;;;;;;5060476;28;20876;-73
2023/11/23 07:48:09;;;;;;;4.67;4.67;;;9.30;99.90;;;;;;5060259;28;20502;-72
2023/11/23 07:50:37;;;;;;;4.57;4.57;;;9.30;99.90;;;;;;5060078;28;20500;-70
2023/11/23 07:53:05;;;;;;;4.40;4.40;;;9.30;99.90;;;;;;5058188;28;20460;-72
2023/11/23 07:55:32;;;;;;;3.80;3.80;;;9.30;99.90;;;;;;5058962;28;20521;-70
2023/11/23 07:57:59;;;;;;;4.10;4.10;;;9.30;99.90;;;;;;5061188;28;20459;-70
2023/11/23 08:00:26;;;;;;;4.67;4.67;;;9.30;99.90;;;;;;5057400;28;20562;-70
2023/11/23 08:02:54;;;;;;;4.30;4.30;;;9.40;99.90;;;;;;5053373;28;20575;-70
2023/11/23 08:05:21;;;;;;;4.73;4.73;;;9.40;99.90;;;;;;5058157;28;20466;-70
2023/11/23 08:07:50;;;;;;;4.50;4.50;;;9.50;99.90;;;;;;5055551;28;20464;-70
2023/11/23 08:10:18;;;;;;;4.70;4.70;;;9.50;99.90;;;;;;5061266;28;20974;-71
2023/11/23 08:12:45;;;;;;;4.60;4.60;;;9.50;99.90;;;;;;5054302;28;20464;-70
2023/11/23 08:15:12;;;;;;;4.73;4.73;;;9.50;99.90;;;;;;5058510;28;20560;-71
2023/11/23 08:17:40;;;;;;;5.07;5.03;;;9.50;99.90;;;;;;5056616;28;20513;-70
2023/11/23 08:20:09;;;;;;;4.90;4.90;;;9.60;99.90;;;;;;5055860;28;20459;-71
2023/11/23 08:22:37;;;;;;;5.50;5.40;;;9.60;99.90;;;;;;5045809;28;20544;-70
2023/11/23 08:25:05;;;;;;;5.40;5.30;;;9.70;99.90;;;;;;5062778;28;20497;-74
2023/11/23 08:27:32;;;;;;;5.30;5.20;;;9.70;99.90;;;;;;5079368;28;20471;-74
2023/11/23 08:29:59;;;;;;;5.87;5.77;;;9.80;99.90;;;;;;5079105;28;20460;-71
2023/11/23 08:32:26;;;;;;;5.63;5.53;;;9.80;99.90;;;;;;5077586;28;20467;-72
2023/11/23 08:34:53;;;;;;;5.90;5.80;;;9.80;99.90;;;;;;5072079;28;20825;-71
2023/11/23 08:37:20;;;;;;;5.60;5.50;;;9.90;99.90;;;;;;5075903;28;20955;-71
2023/11/23 08:39:49;;;;;;;6.00;5.90;;;9.90;99.90;;;;;;5075552;28;20489;-74
2023/11/23 08:42:19;;;;;;;6.13;6.03;;;9.90;99.90;;;;;;5069616;28;20490;-71
2023/11/23 08:44:46;;;;;;;6.70;6.60;;;10.10;99.90;;;;;;5074025;28;20509;-72
2023/11/23 08:47:14;;;;;;;6.30;6.20;;;10.10;99.90;;;;;;5076449;28;20830;-70
2023/11/23 08:49:43;;;;;;;6.40;6.30;;;10.20;99.90;;;;;;5071788;28;20470;-71
2023/11/23 08:52:09;;;;;;;6.43;6.33;;;10.20;99.90;;;;;;5072723;28;20582;-75
2023/11/23 08:54:36;;;;;;;6.63;6.53;;;10.30;99.90;;;;;;5076197;28;20469;-74
2023/11/23 08:57:03;;;;;;;6.90;6.80;;;10.40;99.90;;;;;;5076156;28;20455;-71
2023/11/23 08:59:34;;;;;;;6.97;6.87;;;10.40;99.90;;;;;;5078083;28;20467;-71
2023/11/23 09:02:01;;;;;;;7.27;7.17;;;10.40;99.90;;;;;;5078473;28;20494;-72
2023/11/23 09:04:29;;;;;;;7.13;7.03;;;10.40;99.90;;;;;;5073188;28;20465;-74
2023/11/23 09:06:57;;;;;;;6.83;6.73;;;10.40;99.90;;;;;;5075738;28;20912;-74
2023/11/23 09:09:24;;;;;;;7.30;7.20;;;10.30;99.90;;;;;;5073936;28;20468;-71
2023/11/23 09:11:50;;;;;;;6.83;6.73;;;10.40;99.90;;;;;;5075529;28;20836;-71
2023/11/23 09:14:18;;;;;;;7.90;7.80;;;10.40;99.90;;;;;;5076546;28;20464;-71
2023/11/23 09:16:46;;;;;;;7.50;7.40;;;10.30;99.90;;;;;;5076755;28;20833;-71
2023/11/23 09:19:13;;;;;;;7.67;7.57;;;10.30;99.90;;;;;;5070954;28;20462;-71
2023/11/23 09:21:40;;;;;;;6.97;6.87;;;10.40;99.90;;;;;;5076121;28;20854;-71
2023/11/23 09:24:08;;;;;;;7.20;7.10;;;10.40;99.90;;;;;;5074037;28;20498;-73
2023/11/23 09:26:35;;;;;;;7.80;7.70;;;10.50;99.90;;;;;;5075059;28;21393;-71
2023/11/23 09:29:04;;;;;;;7.60;7.50;;;10.60;99.90;;;;;;5070106;28;20477;-73
2023/11/23 09:31:33;;;;;;;7.00;6.90;;;10.60;99.90;;;;;;5072341;28;20468;-71
2023/11/23 09:34:01;;;;;;;7.73;7.63;;;10.50;99.90;;;;;;5075376;28;20589;-74
2023/11/23 09:36:29;;;;;;;7.40;7.30;;;10.50;99.90;;;;;;5076144;28;20591;-71
2023/11/23 09:38:55;;;;;;;7.40;7.30;;;10.50;99.90;;;;;;5070722;28;20980;-74
2023/11/23 09:41:25;;;;;;;7.13;7.03;;;10.50;99.90;;;;;;5073076;28;20555;-73
2023/11/23 09:43:52;;;;;;;7.20;7.10;;;10.40;99.90;;;;;;5073314;28;20465;-71
2023/11/23 09:46:20;;;;;;;7.73;7.63;;;10.70;99.90;;;;;;5077195;28;20457;-73
2023/11/23 09:48:48;;;;;;;7.60;7.50;;;10.90;99.90;;;;;;5073123;28;20493;-71
2023/11/23 09:51:17;;;;;;;7.87;7.77;;;10.80;99.90;;;;;;5070454;28;20467;-71
2023/11/23 09:53:45;;;;;;;8.07;7.97;;;10.90;99.90;;;;;;5069702;28;20505;-71
2023/11/23 09:56:13;;;;;;;8.20;8.10;;;10.90;99.90;;;;;;5075817;28;20472;-71
2023/11/23 09:58:40;;;;;;;8.23;8.13;;;10.80;99.90;;;;;;5074734;28;21028;-72
2023/11/23 10:01:07;;;;;;;8.27;8.17;;;10.80;99.90;;;;;;5072977;28;20459;-69
2023/11/23 10:03:35;;;;;;;7.83;7.73;;;10.80;99.90;;;;;;5075446;28;20541;-72
2023/11/23 10:06:02;;;;;;;8.30;8.20;;;10.80;99.90;;;;;;5069396;28;20508;-71
2023/11/23 10:08:30;;;;;;;8.00;7.90;;;10.70;99.90;;;;;;5072836;28;21394;-74
2023/11/23 10:10:58;;;;;;;8.30;8.20;;;10.80;99.90;;;;;;5074891;28;20469;-71
2023/11/23 10:13:25;;;;;;;8.10;8.00;;;10.80;99.90;;;;;;5074101;28;20559;-71
2023/11/23 10:15:53;;;;;;;7.83;7.73;;;10.80;99.90;;;;;;5072940;28;20556;-73
2023/11/23 10:18:20;;;;;;;8.17;8.07;;;10.80;99.90;;;;;;5071691;28;20483;-71
2023/11/23 10:20:47;;;;;;;8.10;8.00;;;10.70;99.90;;;;;;5073744;28;20569;-71
2023/11/23 10:23:14;;;;;;;7.70;7.60;;;10.80;99.90;;;;;;5073452;28;20499;-70
2023/11/23 10:25:43;;;;;;;7.70;7.60;;;10.80;99.90;;;;;;5050878;28;21034;-72
2023/11/23 10:28:10;;;;;;;7.73;7.63;;;10.90;99.90;;;;;;5049988;28;20470;-71
2023/11/23 10:30:37;;;;;;;7.50;7.40;;;10.80;99.90;;;;;;5054937;28;20468;-71
2023/11/23 10:33:09;;;;;;;7.90;7.80;;;10.70;99.90;;;;;;5053751;28;20503;-71
2023/11/23 10:35:38;;;;;;;7.37;7.27;;;10.80;99.90;;;;;;5052669;28;20478;-71
2023/11/23 10:38:07;;;;;;;7.13;7.03;;;10.80;99.90;;;;;;5050296;28;20464;-74
2023/11/23 10:40:35;;;;;;;7.80;7.70;;;10.80;99.90;;;;;;5053638;28;20529;-72
2023/11/23 10:43:03;;;;;;;7.60;7.50;;;10.90;99.90;;;;;;5050695;28;20492;-72
2023/11/23 10:45:31;;;;;;;7.40;7.30;;;10.80;99.90;;;;;;5051877;28;20461;-70
2023/11/23 10:47:59;;;;;;;7.27;7.17;;;10.80;99.90;;;;;;5059715;28;20988;-73
2023/11/23 10:50:26;;;;;;;7.50;7.40;;;10.80;99.90;;;;;;5050205;28;20639;-70
2023/11/23 10:52:57;;;;;;;7.60;7.50;;;10.80;99.90;;;;;;5055332;28;20512;-71
2023/11/23 10:55:24;;;;;;;7.43;7.33;;;10.80;99.90;;;;;;5053036;28;20937;-73
2023/11/23 10:57:55;;;;;;;7.53;7.43;;;10.90;99.90;;;;;;5051218;28;20464;-71
2023/11/23 11:00:26;;;;;;;6.90;6.80;;;10.80;99.90;;;;;;5054061;28;20486;-70
2023/11/23 11:02:55;;;;;;;7.30;7.20;;;10.90;99.90;;;;;;5056545;28;20496;-73
2023/11/23 11:05:25;;;;;;;7.43;7.33;;;10.80;99.90;;;;;;5051221;28;20893;-70
2023/11/23 11:08:00;;;;;;;7.57;7.47;;;10.80;99.90;;;;;;5053849;28;20448;-72
2023/11/23 11:10:27;;;;;;;6.87;6.77;;;10.90;99.90;;;;;;5054405;28;20464;-71
2023/11/23 11:13:05;;;;;;;7.60;7.50;;;10.90;99.90;;;;;;5051056;28;20620;-71
2023/11/23 11:15:34;;;;;;;7.77;7.67;;;10.90;99.90;;;;;;5053262;28;20452;-71
2023/11/23 11:18:06;;;;;;;8.00;7.90;;;10.90;99.90;;;;;;5052081;28;21379;-71
2023/11/23 11:20:33;;;;;;;7.67;7.57;;;11.10;99.90;;;;;;5053083;28;20495;-75
2023/11/23 11:23:00;;;;;;;7.93;7.83;;;11.10;99.90;;;;;;5054431;28;20491;-71
2023/11/23 11:25:38;;;;;;;7.50;7.40;;;11.10;99.90;;;;;;5062922;28;20491;-71
2023/11/23 11:28:10;;;;;;;7.40;7.30;;;11.10;99.90;;;;;;5068786;28;20961;-73
2023/11/23 11:30:39;;;;;;;7.40;7.30;;;11.20;99.90;;;;;;5074890;28;20580;-73
2023/11/23 11:33:11;;;;;;;7.97;7.87;;;11.20;99.90;;;;;;5071525;28;20468;-70
2023/11/23 11:35:45;;;;;;;7.80;7.70;;;11.30;99.90;;;;;;5071588;28;20464;-72
2023/11/23 11:38:15;;;;;;;8.00;7.90;;;11.30;99.90;;;;;;5073953;28;20561;-70
2023/11/23 11:40:43;;;;;;;8.20;8.10;;;11.30;99.90;;;;;;5071403;28;22777;-71
2023/11/23 11:43:10;;;;;;;8.17;8.07;;;11.40;99.90;;;;;;5070060;28;20499;-73
2023/11/23 11:45:38;;;;;;;8.20;8.10;;;11.50;99.90;;;;;;5069872;28;20831;-70
2023/11/23 11:48:05;;;;;;;8.87;8.67;;;11.60;99.90;;;;;;5073681;28;20834;-70
2023/11/23 11:50:32;;;;;;;8.87;8.67;;;11.70;99.90;;;;;;5074113;28;20464;-73
2023/11/23 11:52:59;;;;;;;8.90;8.70;;;11.70;99.90;;;;;;5067658;28;21060;-75
2023/11/23 11:55:27;;;;;;;9.00;8.80;;;11.70;99.90;;;;;;5074296;28;20901;-71
2023/11/23 11:57:56;;;;;;;9.37;9.17;;;11.80;99.90;;;;;;5077258;28;20456;-70
2023/11/23 12:00:23;;;;;;;9.10;8.90;;;11.80;99.90;;;;;;5073355;28;20996;-71
2023/11/23 12:02:51;;;;;;;9.73;9.53;;;11.80;99.90;;;;;;5071017;28;20547;-70
2023/11/23 12:05:20;;;;;;;9.47;9.27;;;11.80;99.90;;;;;;5075488;28;20466;-74
2023/11/23 12:07:52;;;;;;;9.43;9.23;;;11.80;99.90;;;;;;5069507;28;20464;-71
2023/11/23 12:10:19;;;;;;;9.70;9.50;;;11.80;99.90;;;;;;5076686;28;20989;-72
2023/11/23 12:12:47;;;;;;;9.77;9.57;;;11.80;99.90;;;;;;5069251;28;20460;-72
2023/11/23 12:15:16;;;;;;;9.90;9.70;;;11.80;99.90;;;;;;5075385;28;21261;-71
2023/11/23 12:17:52;;;;;;;9.63;9.43;;;11.80;99.90;;;;;;5074836;28;20496;-72
2023/11/23 12:20:19;;;;;;;9.50;9.30;;;11.80;99.90;;;;;;5077979;28;20456;-71
2023/11/23 12:22:47;;;;;;;9.60;9.40;;;11.70;99.90;;;;;;5075309;28;20487;-73
2023/11/23 12:25:17;;;;;;;9.30;9.10;;;11.80;99.90;;;;;;5074225;28;20586;-71
2023/11/23 12:27:45;;;;;;;9.50;9.30;;;11.80;99.90;;;;;;5073349;28;20525;-72
2023/11/23 12:30:15;;;;;;;9.43;9.23;;;11.80;99.90;;;;;;5071851;28;20473;-71
2023/11/23 12:32:41;;;;;;;9.60;9.40;;;11.90;99.90;;;;;;5070477;28;20566;-74
2023/11/23 12:35:10;;;;;;;10.00;9.80;;;11.90;99.90;;;;;;5075475;28;20468;-74
2023/11/23 12:37:37;;;;;;;9.47;9.27;;;11.90;99.90;;;;;;5075953;28;20467;-71
2023/11/23 12:40:09;;;;;;;9.63;9.43;;;11.90;99.90;;;;;;5075111;28;21430;-71
2023/11/23 12:42:36;;;;;;;9.67;9.47;;;11.90;99.90;;;;;;5071266;28;20498;-71
2023/11/23 12:45:05;;;;;;;9.43;9.23;;;11.90;99.90;;;;;;5074161;28;20473;-72
2023/11/23 12:47:32;;;;;;;9.40;9.20;;;11.90;99.90;;;;;;5074687;28;20458;-72
2023/11/23 12:49:59;;;;;;;9.70;9.50;;;11.80;99.90;;;;;;5078602;28;20498;-72
2023/11/23 12:52:27;;;;;;;10.13;9.93;;;11.90;99.90;;;;;;5075248;28;20466;-71
2023/11/23 12:54:53;;;;;;;9.43;9.23;;;11.90;99.90;;;;;;5074798;28;20906;-73